Time;durP1;ratioP1;P1;durP2;ratioP2;P2;SDS_P1;SDS_P2;PMS_P1;PMS_P2;Temp;Humidity;BMP_temperature;BMP_pressure;BME280_temperature;BME280_humidity;BME280_pressure;Samples;Min_cycle;Max_cycle;Signal;HPM_P1;HPM_P2
2023/04/21 00:00:43;;;;;;;37.27;20.10;;;;;;;5.81;100.00;101387.94;4919389;29;20619;-87
2023/04/21 00:03:08;;;;;;;39.17;22.27;;;;;;;5.76;100.00;101387.75;4915017;29;20031;-87
2023/04/21 00:05:34;;;;;;;37.63;22.80;;;;;;;5.78;100.00;101380.38;4912366;29;20442;-87
2023/04/21 00:07:59;;;;;;;37.95;22.27;;;;;;;5.79;100.00;101375.88;4914051;29;20043;-86
2023/04/21 00:10:24;;;;;;;35.30;21.53;;;;;;;5.76;100.00;101377.13;4918739;29;20040;-88
2023/04/21 00:12:49;;;;;;;31.93;20.80;;;;;;;5.75;100.00;101372.81;4901932;29;20063;-88
2023/04/21 00:15:15;;;;;;;35.40;21.53;;;;;;;5.74;100.00;101358.72;4900211;29;20021;-88
2023/04/21 00:17:40;;;;;;;34.73;20.70;;;;;;;5.80;100.00;101362.38;4899465;29;20507;-87
2023/04/21 00:20:07;;;;;;;35.53;20.07;;;;;;;5.81;100.00;101365.84;4917912;29;20075;-87
2023/04/21 00:22:33;;;;;;;37.83;22.48;;;;;;;5.75;100.00;101360.31;4897318;29;20031;-87
2023/04/21 00:24:58;;;;;;;35.67;22.07;;;;;;;5.83;100.00;101355.81;4917664;29;20047;-87
2023/04/21 00:27:23;;;;;;;37.75;21.77;;;;;;;5.85;100.00;101351.09;4917913;29;20032;-87
2023/04/21 00:29:49;;;;;;;36.83;22.40;;;;;;;5.86;100.00;101345.53;4915547;29;20036;-87
2023/04/21 00:32:17;;;;;;;37.47;21.10;;;;;;;5.59;100.00;101307.66;4939522;23;20032;-87
2023/04/21 00:34:42;;;;;;;36.53;21.17;;;;;;;5.81;100.00;101350.72;4936645;29;20032;-88
2023/04/21 00:37:07;;;;;;;37.60;21.57;;;;;;;5.69;100.00;101328.44;4918429;29;20176;-88
2023/04/21 00:39:33;;;;;;;42.47;21.80;;;;;;;5.84;100.00;101354.78;4943343;29;20050;-88
2023/04/21 00:41:58;;;;;;;40.30;22.23;;;;;;;5.81;100.00;101342.72;4949371;28;20035;-88
2023/04/21 00:44:24;;;;;;;38.40;22.50;;;;;;;5.70;100.00;101312.31;4918175;29;20047;-88
2023/04/21 00:46:49;;;;;;;38.90;20.70;;;;;;;5.77;100.00;101336.19;4918383;29;20093;-89
2023/04/21 00:49:14;;;;;;;41.93;22.97;;;;;;;5.76;100.00;101334.56;4917428;29;20496;-88
2023/04/21 00:51:40;;;;;;;40.60;22.47;;;;;;;5.76;100.00;101337.22;4916633;29;20028;-88
2023/04/21 00:54:08;;;;;;;41.23;22.50;;;;;;;5.81;100.00;101342.72;4916151;29;20028;-89
2023/04/21 00:56:35;;;;;;;39.90;21.92;;;;;;;5.79;100.00;101338.63;4917537;29;20094;-89
2023/04/21 00:59:01;;;;;;;41.60;22.50;;;;;;;5.76;100.00;101337.22;4916901;29;20024;-88
2023/04/21 01:01:31;;;;;;;40.03;21.75;;;;;;;5.78;100.00;101337.00;4917927;29;20115;-88
2023/04/21 01:03:58;;;;;;;40.42;22.75;;;;;;;5.75;100.00;101325.75;4918282;29;20126;-87
2023/04/21 01:06:24;;;;;;;42.60;23.40;;;;;;;5.67;100.00;101320.69;4903269;29;20077;-89
2023/04/21 01:08:52;;;;;;;44.00;22.17;;;;;;;5.75;100.00;101322.28;4898496;29;20040;-90
2023/04/21 01:11:18;;;;;;;45.63;22.97;;;;;;;5.68;100.00;101311.69;4911195;29;20288;-88
2023/04/21 01:13:43;;;;;;;50.53;21.80;;;;;;;5.71;100.00;101315.75;4919796;29;20047;-89
2023/04/21 01:16:18;;;;;;;52.83;23.60;;;;;;;5.73;100.00;101314.53;4920215;29;20028;-90
2023/04/21 01:18:44;;;;;;;38.08;20.95;;;;;;;5.75;100.00;101322.28;4923901;29;20056;-90
2023/04/21 01:21:10;;;;;;;41.40;21.92;;;;;;;5.74;100.00;101310.84;4927648;29;20087;-90
2023/04/21 01:26:18;;;;;;;42.25;22.45;;;;;;;5.38;100.00;101250.31;5249866;23;20052;-91
2023/04/21 01:28:47;;;;;;;41.85;22.17;;;;;;;5.49;100.00;101278.84;4918331;29;20039;-88
2023/04/21 01:31:19;;;;;;;43.55;21.85;;;;;;;5.50;100.00;101277.81;4916634;29;20588;-88
2023/04/21 01:33:51;;;;;;;46.33;21.10;;;;;;;5.40;100.00;101249.06;4922778;29;20645;-88
2023/04/21 01:36:37;;;;;;;38.30;20.73;;;;;;;5.70;100.00;101304.31;4906195;29;20090;-88
2023/04/21 01:39:44;;;;;;;44.75;21.70;;;;;;;5.61;100.00;101301.09;4931142;29;20068;-88
2023/04/21 01:42:09;;;;;;;37.88;20.55;;;;;;;5.46;100.00;101266.81;4912493;29;20040;-88
2023/04/21 01:44:41;;;;;;;39.77;20.47;;;;;;;5.29;100.00;101237.28;4915836;29;20036;-88
2023/04/21 01:47:22;;;;;;;42.13;21.48;;;;;;;5.35;100.00;101237.44;4917054;29;20032;-88
2023/04/21 01:49:47;;;;;;;46.17;21.58;;;;;;;5.34;100.00;101241.13;4899763;29;20024;-90
2023/04/21 01:52:26;;;;;;;41.20;20.77;;;;;;;5.26;100.00;101221.75;4917801;29;20083;-90
2023/04/21 01:55:13;;;;;;;41.60;21.48;;;;;;;5.33;100.00;101232.34;4927995;29;20027;-90
2023/04/21 01:57:39;;;;;;;40.33;20.05;;;;;;;5.63;100.00;101284.13;4926598;29;20036;-90
2023/04/21 02:00:08;;;;;;;45.40;22.52;;;;;;;5.64;100.00;101272.47;4915672;29;20032;-90
2023/04/21 02:02:33;;;;;;;40.83;20.97;;;;;;;5.63;100.00;101279.59;4910861;29;20179;-90
2023/04/21 02:04:58;;;;;;;41.67;21.02;;;;;;;5.61;100.00;101263.06;4917476;29;20497;-90
2023/04/21 02:07:24;;;;;;;44.70;22.13;;;;;;;5.59;100.00;101249.16;4918400;29;20532;-90
2023/04/21 02:09:49;;;;;;;45.97;21.53;;;;;;;5.63;100.00;101260.19;4918578;29;20484;-90
2023/04/21 02:14:49;;;;;;;44.65;21.65;;;;;;;5.45;100.00;101248.44;5950954;23;21032;-90
2023/04/21 02:17:16;;;;;;;38.80;20.77;;;;;;;5.52;100.00;101259.81;4953752;28;20046;-89
2023/04/21 02:19:41;;;;;;;43.20;20.95;;;;;;;5.49;100.00;101254.94;4935855;29;20078;-90
2023/04/21 02:22:07;;;;;;;42.57;20.87;;;;;;;5.49;100.00;101260.25;4953510;28;20104;-89
2023/04/21 02:24:33;;;;;;;43.75;21.75;;;;;;;5.38;100.00;101235.19;4954706;28;20034;-90
2023/04/21 02:26:58;;;;;;;44.15;21.23;;;;;;;5.51;100.00;101247.56;4945842;29;20055;-89
2023/04/21 02:29:24;;;;;;;40.70;20.77;;;;;;;5.49;100.00;101248.81;4939645;29;20036;-89
2023/04/21 02:31:49;;;;;;;44.33;21.17;;;;;;;5.46;100.00;101237.56;4933264;28;20061;-90
2023/04/21 02:34:14;;;;;;;44.65;21.98;;;;;;;5.47;100.00;101238.41;4931162;29;20036;-90
2023/04/21 02:36:40;;;;;;;49.87;22.20;;;;;;;5.44;100.00;101236.16;4951104;29;20080;-90
2023/04/21 02:39:05;;;;;;;50.17;22.90;;;;;;;5.54;100.00;101241.81;4943672;29;20536;-90
2023/04/21 02:41:31;;;;;;;50.67;21.70;;;;;;;5.52;100.00;101232.44;4963408;23;20030;-90
2023/04/21 02:43:56;;;;;;;44.15;20.52;;;;;;;5.47;100.00;101225.13;4956950;28;20092;-90
2023/04/21 02:46:21;;;;;;;46.23;21.53;;;;;;;5.51;100.00;101231.63;4968611;29;20023;-90
2023/04/21 02:48:46;;;;;;;46.77;22.60;;;;;;;5.56;100.00;101239.78;4974830;29;20047;-90
2023/04/21 02:51:13;;;;;;;47.57;22.97;;;;;;;5.51;100.00;101225.50;4957544;29;20070;-89
2023/04/21 02:53:39;;;;;;;43.47;22.30;;;;;;;5.53;100.00;101236.72;4957207;29;20102;-89
2023/04/21 02:56:07;;;;;;;52.17;23.75;;;;;;;5.49;100.00;101222.22;4955794;28;20465;-90
2023/04/21 02:58:34;;;;;;;53.10;23.97;;;;;;;5.58;100.00;101229.75;4937457;29;20114;-90
2023/04/21 03:01:00;;;;;;;53.97;24.60;;;;;;;5.54;100.00;101217.09;4950065;28;20028;-90
2023/04/21 03:03:25;;;;;;;48.63;22.60;;;;;;;5.55;100.00;101208.91;4932850;29;20046;-90
2023/04/21 03:05:59;;;;;;;53.30;24.50;;;;;;;5.46;100.00;101203.03;4932823;28;20040;-91
2023/04/21 03:08:25;;;;;;;52.85;24.17;;;;;;;5.40;100.00;101206.53;4934175;29;20036;-92
2023/04/21 03:10:50;;;;;;;58.23;25.17;;;;;;;5.48;100.00;101216.09;4939593;29;20024;-92
2023/04/21 03:13:16;;;;;;;55.28;24.08;;;;;;;5.32;100.00;101201.47;4934946;29;20028;-92
2023/04/21 03:15:41;;;;;;;53.40;24.67;;;;;;;5.34;100.00;101215.38;4922563;29;20031;-90
2023/04/21 03:18:06;;;;;;;53.90;23.67;;;;;;;5.23;100.00;101216.03;4936423;29;20024;-94
2023/04/21 03:20:32;;;;;;;53.23;24.07;;;;;;;5.17;100.00;101219.56;4941468;29;20280;-89
2023/04/21 03:22:57;;;;;;;53.20;24.43;;;;;;;5.13;100.00;101235.06;4929866;29;20055;-92
2023/04/21 03:25:22;;;;;;;50.33;23.87;;;;;;;5.00;100.00;101215.53;4941244;29;20043;-89
2023/04/21 03:27:48;;;;;;;55.97;24.03;;;;;;;4.86;100.00;101203.31;4934865;29;20080;-89
2023/04/21 03:30:13;;;;;;;58.58;24.75;;;;;;;4.85;100.00;101213.13;4934360;29;20039;-89
2023/04/21 03:32:39;;;;;;;61.27;25.13;;;;;;;4.91;100.00;101223.94;4917055;29;20403;-89
2023/04/21 03:35:04;;;;;;;59.03;26.10;;;;;;;4.66;100.00;101184.78;4928849;29;20411;-88
2023/04/21 03:37:30;;;;;;;65.53;25.45;;;;;;;4.80;100.00;101205.00;4931861;29;20488;-89
2023/04/21 03:39:55;;;;;;;62.30;25.63;;;;;;;4.79;100.00;101203.34;4934296;29;20071;-89
2023/04/21 03:42:21;;;;;;;66.00;27.15;;;;;;;4.93;100.00;101221.88;4950313;29;20080;-89
2023/04/21 03:44:46;;;;;;;64.80;27.50;;;;;;;4.82;100.00;101212.72;4954001;29;20484;-89
2023/04/21 03:47:11;;;;;;;68.57;26.67;;;;;;;4.85;100.00;101220.28;4937090;29;20031;-89
2023/04/21 03:49:37;;;;;;;64.70;27.33;;;;;;;4.80;100.00;101220.91;4948501;29;20031;-89
2023/04/21 03:52:02;;;;;;;63.23;26.33;;;;;;;4.76;100.00;101225.00;4919632;29;20122;-89
2023/04/21 03:54:27;;;;;;;67.73;27.23;;;;;;;4.72;100.00;101212.38;4928654;29;20400;-88
2023/04/21 03:56:53;;;;;;;61.43;24.50;;;;;;;4.76;100.00;101214.38;4937016;29;20802;-88
2023/04/21 03:59:18;;;;;;;70.73;27.10;;;;;;;4.80;100.00;101215.59;4934713;29;20260;-89
2023/04/21 04:01:43;;;;;;;75.30;28.77;;;;;;;4.83;100.00;101207.22;4940861;29;20075;-88
2023/04/21 04:04:09;;;;;;;86.77;31.90;;;;;;;4.92;100.00;101215.78;4938645;29;20119;-89
2023/04/21 04:06:34;;;;;;;79.07;28.93;;;;;;;4.96;100.00;101216.97;4953991;28;20031;-89
2023/04/21 04:09:03;;;;;;;78.50;29.55;;;;;;;4.91;100.00;101206.19;4946121;29;20031;-89
2023/04/21 04:11:32;;;;;;;79.93;29.90;;;;;;;4.95;100.00;101212.69;4936465;29;20032;-87
2023/04/21 04:13:57;;;;;;;73.57;28.10;;;;;;;4.82;100.00;101207.41;4937353;29;20295;-88
2023/04/21 04:16:23;;;;;;;81.47;30.30;;;;;;;4.87;100.00;101217.41;4938313;29;20031;-93
2023/04/21 04:18:51;;;;;;;78.57;30.27;;;;;;;4.84;100.00;101208.84;4952373;29;20580;-88
2023/04/21 04:21:16;;;;;;;73.93;29.67;;;;;;;4.85;100.00;101214.97;4927408;29;20023;-88
2023/04/21 04:23:43;;;;;;;77.13;29.23;;;;;;;4.89;100.00;101216.19;4942549;29;20121;-87
2023/04/21 04:26:10;;;;;;;82.30;30.98;;;;;;;4.89;100.00;101207.38;4935215;29;20030;-90
2023/04/21 04:28:35;;;;;;;83.10;29.23;;;;;;;4.88;100.00;101203.94;4955644;29;20119;-88
2023/04/21 04:31:01;;;;;;;86.70;30.60;;;;;;;4.97;100.00;101215.94;4948799;29;20016;-87
2023/04/21 04:33:27;;;;;;;83.45;30.90;;;;;;;4.97;100.00;101202.66;4933850;28;20035;-88
2023/04/21 04:35:53;;;;;;;88.82;30.35;;;;;;;4.95;100.00;101199.41;4956018;29;20549;-89
2023/04/21 04:38:19;;;;;;;88.13;31.48;;;;;;;5.12;100.00;101217.50;4967305;28;20463;-92
2023/04/21 04:40:52;;;;;;;84.63;29.87;;;;;;;5.11;100.00;101211.38;4933491;29;20075;-87
2023/04/21 04:43:17;;;;;;;91.65;32.53;;;;;;;5.14;100.00;101218.09;4936876;29;20465;-87
2023/04/21 04:45:44;;;;;;;85.90;31.77;;;;;;;5.20;100.00;101221.78;4953733;28;20115;-88
2023/04/21 04:48:10;;;;;;;87.47;32.45;;;;;;;5.30;100.00;101225.59;4954513;29;20019;-88
2023/04/21 04:50:35;;;;;;;90.75;32.85;;;;;;;5.33;100.00;101218.22;4932266;29;20046;-90
2023/04/21 04:53:00;;;;;;;92.53;32.63;;;;;;;5.37;100.00;101230.06;4956361;29;20034;-91
2023/04/21 04:55:26;;;;;;;91.93;31.60;;;;;;;5.31;100.00;101215.78;4959439;28;20038;-91
2023/04/21 04:57:51;;;;;;;90.67;32.73;;;;;;;5.22;100.00;101203.75;4956508;28;20050;-90
2023/04/21 05:00:17;;;;;;;91.38;32.20;;;;;;;5.32;100.00;101222.75;4956219;29;20027;-90
2023/04/21 05:02:42;;;;;;;92.30;33.10;;;;;;;5.34;100.00;101226.00;4937931;29;20028;-91
2023/04/21 05:05:07;;;;;;;95.35;33.97;;;;;;;5.29;100.00;101218.69;4959217;28;20069;-91
2023/04/21 05:07:33;;;;;;;89.17;32.37;;;;;;;5.38;100.00;101226.38;4974070;28;20049;-90
2023/04/21 05:09:59;;;;;;;88.07;31.50;;;;;;;5.41;100.00;101217.97;4959173;28;20042;-91
2023/04/21 05:15:00;;;;;;;93.53;32.97;;;;;;;5.51;100.00;101230.81;5785771;23;20381;-91
2023/04/21 05:17:26;;;;;;;95.40;33.70;;;;;;;5.48;100.00;101226.72;4912912;29;20042;-90
2023/04/21 05:19:51;;;;;;;95.63;35.35;;;;;;;5.40;100.00;101219.00;4942814;29;20020;-90
2023/04/21 05:22:16;;;;;;;90.20;33.03;;;;;;;5.46;100.00;101232.25;4922119;29;20028;-92
2023/04/21 05:24:43;;;;;;;83.10;32.15;;;;;;;5.52;100.00;101243.06;4921057;29;20043;-92
2023/04/21 05:27:09;;;;;;;89.13;32.43;;;;;;;5.50;100.00;101237.16;4926098;29;20072;-91
2023/04/21 05:29:34;;;;;;;88.55;32.70;;;;;;;5.50;100.00;101229.97;4913948;29;20020;-88
2023/04/21 05:32:00;;;;;;;89.10;31.87;;;;;;;5.63;100.00;101236.25;4915573;29;20056;-84
2023/04/21 05:34:26;;;;;;;98.20;34.80;;;;;;;5.68;100.00;101236.41;4919338;29;20028;-85
2023/04/21 05:36:53;;;;;;;104.55;35.50;;;;;;;5.91;100.00;101251.81;4930447;29;20036;-87
2023/04/21 05:39:18;;;;;;;109.43;36.83;;;;;;;6.00;100.00;101247.09;4915589;29;20484;-87
2023/04/21 05:41:43;;;;;;;108.67;36.37;;;;;;;6.09;100.00;101251.09;4929034;29;20047;-88
2023/04/21 05:44:10;;;;;;;104.20;35.97;;;;;;;6.06;100.00;101243.53;4929882;29;20135;-87
2023/04/21 05:46:36;;;;;;;97.22;34.97;;;;;;;6.02;100.00;101245.81;4930250;29;20040;-87
2023/04/21 05:49:01;;;;;;;101.47;35.83;;;;;;;5.83;100.00;101220.16;4926995;29;20028;-88
2023/04/21 05:51:26;;;;;;;101.97;36.00;;;;;;;5.95;100.00;101252.19;4921225;29;20615;-87
2023/04/21 05:53:52;;;;;;;100.97;35.47;;;;;;;5.89;100.00;101251.22;4921006;29;20296;-84
2023/04/21 05:56:17;;;;;;;94.37;34.93;;;;;;;6.01;100.00;101262.03;4923971;29;20079;-86
2023/04/21 05:58:43;;;;;;;92.07;34.40;;;;;;;6.01;100.00;101267.34;4921965;29;20028;-86
2023/04/21 06:01:12;;;;;;;93.03;34.90;;;;;;;6.02;100.00;101259.13;4925041;29;20032;-85
2023/04/21 06:03:47;;;;;;;90.15;33.75;;;;;;;6.11;100.00;101257.00;4921686;29;20079;-85
2023/04/21 06:06:14;;;;;;;86.75;33.83;;;;;;;6.14;100.00;101253.09;4923166;29;20039;-86
2023/04/21 06:08:42;;;;;;;94.73;34.17;;;;;;;6.24;100.00;101250.78;4915465;29;20044;-87
2023/04/21 06:11:08;;;;;;;98.07;36.40;;;;;;;6.39;100.00;101250.41;4885419;29;20338;-87
2023/04/21 06:13:33;;;;;;;98.53;35.88;;;;;;;6.41;100.00;101237.69;4917211;29;20103;-87
2023/04/21 06:15:59;;;;;;;98.97;36.33;;;;;;;6.46;100.00;101243.19;4912065;29;20483;-87
2023/04/21 06:18:27;;;;;;;102.05;37.67;;;;;;;6.51;100.00;101229.22;4916382;29;20083;-87
2023/04/21 06:20:53;;;;;;;85.20;33.73;;;;;;;6.50;100.00;101238.22;4908652;29;20028;-86
2023/04/21 06:23:21;;;;;;;95.20;36.30;;;;;;;6.60;100.00;101245.72;4920550;29;20306;-86
2023/04/21 06:25:46;;;;;;;76.97;31.48;;;;;;;6.67;100.00;101233.16;4923267;29;20032;-87
2023/04/21 06:28:12;;;;;;;107.70;39.67;;;;;;;6.81;100.00;101233.81;4928806;29;20519;-87
2023/04/21 06:30:39;;;;;;;102.00;37.10;;;;;;;6.92;100.00;101243.72;4929521;29;20473;-85
2023/04/21 06:33:05;;;;;;;96.43;37.47;;;;;;;7.11;100.00;101260.53;4920279;29;20076;-85
2023/04/21 06:35:31;;;;;;;90.63;35.80;;;;;;;7.13;100.00;101258.44;4919704;29;20053;-86
2023/04/21 06:37:56;;;;;;;87.30;35.83;;;;;;;7.07;100.00;101242.53;4903041;29;20037;-87
2023/04/21 06:40:21;;;;;;;96.83;36.37;;;;;;;7.20;100.00;101253.03;4897096;29;20067;-87
2023/04/21 06:42:47;;;;;;;88.60;36.13;;;;;;;7.28;100.00;101266.03;4913576;29;20565;-87
2023/04/21 06:45:12;;;;;;;93.27;38.63;;;;;;;7.23;100.00;101262.44;4917187;29;20115;-88
2023/04/21 06:47:37;;;;;;;85.10;36.60;;;;;;;7.12;100.00;101242.69;4916274;29;20187;-87
2023/04/21 06:50:03;;;;;;;85.07;35.65;;;;;;;7.21;100.00;101261.84;4920078;29;20084;-85
2023/04/21 06:52:30;;;;;;;86.37;36.70;;;;;;;7.19;100.00;101259.41;4919055;29;20473;-85
2023/04/21 06:54:56;;;;;;;82.80;33.97;;;;;;;7.05;100.00;101237.44;4920232;29;20065;-87
2023/04/21 06:57:21;;;;;;;87.67;38.50;;;;;;;7.21;100.00;101251.19;4916050;29;20029;-87
2023/04/21 06:59:46;;;;;;;82.53;36.05;;;;;;;7.17;100.00;101248.16;4915012;29;20038;-86
2023/04/21 07:02:12;;;;;;;78.30;32.47;;;;;;;7.32;100.00;101250.41;4921723;29;20027;-86
2023/04/21 07:04:37;;;;;;;91.00;36.43;;;;;;;7.30;100.00;101241.84;4929825;29;20636;-87
2023/04/21 07:07:02;;;;;;;84.87;35.60;;;;;;;7.32;100.00;101246.94;4925299;29;20064;-85
2023/04/21 07:09:29;;;;;;;79.53;33.27;;;;;;;7.46;100.00;101251.03;4923396;29;20036;-87
2023/04/21 07:11:55;;;;;;;80.35;33.63;;;;;;;7.48;100.00;101253.50;4977746;23;20162;-85
2023/04/21 07:14:20;;;;;;;79.20;34.40;;;;;;;7.08;100.00;101202.34;4967921;29;20129;-86
2023/04/21 07:36:33;;;;;;;65.57;30.27;;;;;;;7.79;100.00;101195.59;4896545;29;20135;-90
2023/04/21 07:38:59;;;;;;;50.35;26.98;;;;;;;7.99;100.00;101238.78;4897963;29;20032;-91
2023/04/21 07:41:50;;;;;;;56.73;29.80;;;;;;;7.87;100.00;101237.94;4905431;29;20050;-90
2023/04/21 07:44:16;;;;;;;52.97;28.05;;;;;;;7.96;100.00;101241.91;4839182;29;20888;-90
2023/04/21 08:05:30;;;;;;;33.65;19.27;;;;;;;8.08;100.00;101209.06;5079504;23;20047;-89
2023/04/21 08:08:19;;;;;;;32.03;18.27;;;;;;;8.53;100.00;101248.56;4943517;29;20036;-90
2023/04/21 08:10:45;;;;;;;32.03;19.05;;;;;;;8.47;100.00;101234.28;4945651;28;20085;-91
2023/04/21 08:13:13;;;;;;;30.83;18.57;;;;;;;8.32;100.00;101202.69;4954105;29;20028;-91
2023/04/21 08:15:39;;;;;;;33.25;19.05;;;;;;;8.56;100.00;101208.03;4941145;29;20031;-88
2023/04/21 08:18:07;;;;;;;32.45;20.10;;;;;;;9.05;100.00;101245.09;4935985;29;20039;-91
2023/04/21 08:20:32;;;;;;;31.85;18.65;;;;;;;9.09;100.00;101227.53;4934519;29;20039;-92
2023/04/21 08:22:58;;;;;;;35.97;19.80;;;;;;;9.31;100.00;101234.91;4941307;29;20087;-89
2023/04/21 08:25:23;;;;;;;30.60;19.17;;;;;;;9.37;100.00;101243.81;4944931;23;20127;-90
2023/04/21 08:27:48;;;;;;;30.98;19.63;;;;;;;9.45;100.00;101237.28;4955581;28;20037;-91
2023/04/21 08:30:14;;;;;;;29.93;18.37;;;;;;;9.55;100.00;101248.97;4958022;28;20026;-90
2023/04/21 08:32:41;;;;;;;30.17;19.30;;;;;;;9.65;100.00;101251.00;4958961;29;20549;-89
2023/04/21 08:35:07;;;;;;;33.10;19.98;;;;;;;9.82;100.00;101248.38;4923088;29;20039;-87
2023/04/21 08:37:35;;;;;;;32.53;18.70;;;;;;;10.04;100.00;101246.84;4941476;28;20042;-89
2023/04/21 08:40:02;;;;;;;30.13;17.98;;;;;;;10.22;100.00;101241.22;4957415;29;20078;-89
2023/04/21 08:42:28;;;;;;;26.92;17.23;;;;;;;10.19;100.00;101228.31;4959553;29;20042;-89
2023/04/21 08:44:54;;;;;;;27.67;16.85;;;;;;;10.27;100.00;101248.50;4955197;29;20317;-89
2023/04/21 08:47:21;;;;;;;25.33;16.70;;;;;;;10.38;100.00;101233.41;4958691;29;20067;-90
2023/04/21 08:49:49;;;;;;;26.25;16.85;;;;;;;10.51;100.00;101241.13;4952228;28;20020;-90
2023/04/21 08:52:14;;;;;;;26.92;16.60;;;;;;;10.47;100.00;101231.16;4958291;28;20490;-89
2023/04/21 09:04:17;;;;;;;22.17;13.45;;;;;;;11.26;100.00;101231.81;5567862;23;20058;-89
2023/04/21 09:06:42;;;;;;;25.95;16.90;;;;;;;11.35;100.00;101239.16;4948964;29;20098;-89
2023/04/21 09:09:08;;;;;;;25.57;15.87;;;;;;;11.35;100.00;101217.69;4954855;29;20499;-90
2023/04/21 09:11:33;;;;;;;24.47;15.83;;;;;;;11.52;100.00;101228.34;4941536;29;20073;-90
2023/04/21 09:13:59;;;;;;;24.63;15.50;;;;;;;11.65;100.00;101221.75;4925630;29;20484;-90
2023/04/21 09:16:31;;;;;;;22.40;14.82;;;;;;;12.14;100.00;101235.31;4938171;29;20031;-88
2023/04/21 09:18:58;;;;;;;22.27;14.70;;;;;;;12.33;100.00;101228.44;4918083;29;20028;-88
2023/04/21 09:24:04;;;;;;;22.05;12.80;;;;;;;12.74;100.00;101190.22;5875849;23;21058;-87
2023/04/21 09:26:37;;;;;;;15.65;11.52;;;;;;;13.08;100.00;101222.03;4935689;29;20114;-89
2023/04/21 09:29:05;;;;;;;16.42;11.60;;;;;;;13.04;100.00;101226.34;4936327;29;20391;-91
2023/04/21 09:31:35;;;;;;;15.00;9.25;;;;;;;12.96;100.00;101222.28;4934210;29;20012;-87
2023/04/21 09:34:00;;;;;;;19.08;11.80;;;;;;;13.23;100.00;101223.97;4908321;29;20036;-90
2023/04/21 09:36:28;;;;;;;20.50;13.47;;;;;;;13.44;100.00;101218.63;4915819;29;20036;-86
2023/04/21 09:38:57;;;;;;;16.20;12.40;;;;;;;13.47;100.00;101229.69;4944266;29;20027;-87
2023/04/21 09:41:24;;;;;;;21.15;14.85;;;;;;;13.50;100.00;101216.78;4926176;29;20046;-88
2023/04/21 09:43:49;;;;;;;22.23;13.88;;;;;;;14.03;100.00;101225.38;4896630;29;20115;-89
2023/04/21 09:46:19;;;;;;;20.10;14.10;;;;;;;14.12;96.59;101222.13;4914790;29;20469;-89
2023/04/21 09:48:46;;;;;;;19.02;13.70;;;;;;;14.30;96.79;101229.66;4913317;29;20479;-90
2023/04/21 09:52:05;;;;;;;28.45;15.20;;;;;;;14.63;100.00;101230.09;4936760;29;20400;-88
2023/04/21 09:55:42;;;;;;;21.00;15.50;;;;;;;14.90;96.73;101222.72;4932299;29;20047;-88
2023/04/21 09:58:12;;;;;;;18.08;12.77;;;;;;;14.68;89.90;101224.72;4928196;29;20047;-89
2023/04/21 10:00:38;;;;;;;17.63;13.43;;;;;;;14.69;92.92;101220.94;4935012;29;20032;-86
2023/04/21 10:03:10;;;;;;;19.77;13.03;;;;;;;14.83;91.69;101225.72;4934969;29;20035;-85
2023/04/21 10:05:37;;;;;;;16.47;10.57;;;;;;;14.69;86.57;101220.94;4926364;29;20314;-86
2023/04/21 10:08:10;;;;;;;16.35;12.20;;;;;;;14.57;87.43;101222.28;4941724;29;20035;-86
2023/04/21 10:10:35;;;;;;;17.98;12.65;;;;;;;14.59;83.23;101212.03;4924898;29;20024;-86
2023/04/21 10:13:03;;;;;;;16.83;12.23;;;;;;;14.49;83.32;101199.41;4926783;29;21133;-87
2023/04/21 10:15:40;;;;;;;14.93;12.67;;;;;;;14.58;82.04;101210.41;4946109;29;20399;-88
2023/04/21 10:18:15;;;;;;;13.10;10.73;;;;;;;14.46;82.25;101206.16;4939693;29;20300;-84
2023/04/21 10:21:03;;;;;;;14.20;11.07;;;;;;;14.37;83.18;101197.00;4925884;29;20420;-88
2023/04/21 10:23:37;;;;;;;16.92;11.90;;;;;;;14.49;82.27;101200.22;4932125;29;20483;-87
2023/04/21 10:26:11;;;;;;;14.32;10.48;;;;;;;14.50;81.24;101201.00;4936272;29;20024;-86
2023/04/21 10:28:46;;;;;;;16.17;10.10;;;;;;;14.67;80.83;101203.38;4937106;29;20180;-86
2023/04/21 10:31:33;;;;;;;14.77;11.60;;;;;;;14.85;79.87;101191.19;4933169;29;20487;-87
2023/04/21 10:34:05;;;;;;;14.63;10.60;;;;;;;15.35;76.59;101187.63;4907030;29;20040;-86
2023/04/21 10:36:31;;;;;;;14.38;11.40;;;;;;;15.69;78.62;101186.84;4924610;29;20491;-85
2023/04/21 10:39:02;;;;;;;16.60;12.43;;;;;;;16.03;75.53;101181.41;4940550;29;20083;-86
2023/04/21 10:41:33;;;;;;;12.50;8.90;;;;;;;16.28;74.41;101179.53;4944081;29;20039;-87
2023/04/21 10:44:11;;;;;;;15.70;11.20;;;;;;;16.25;75.45;101182.00;4936280;29;20350;-84
2023/04/21 10:46:45;;;;;;;14.68;10.45;;;;;;;16.30;74.57;101168.41;4921641;29;20094;-84
2023/04/21 10:49:30;;;;;;;14.65;10.68;;;;;;;16.16;74.24;101171.81;4925877;29;20091;-85
2023/04/21 10:52:02;;;;;;;14.32;10.32;;;;;;;16.10;72.65;101159.44;4930382;29;20050;-88
2023/04/21 10:54:49;;;;;;;12.38;10.00;;;;;;;16.10;76.11;101164.84;4919426;29;20039;-86
2023/04/21 10:57:20;;;;;;;15.55;11.60;;;;;;;15.98;73.88;101157.13;4906646;29;20096;-85
2023/04/21 11:12:41;;;;;;;13.13;9.52;;;;;;;16.08;67.28;101112.97;5096630;23;20055;-86
2023/04/21 11:15:14;;;;;;;13.90;9.57;;;;;;;15.71;71.58;101127.91;4952229;29;20422;-86
2023/04/21 11:17:42;;;;;;;13.27;9.52;;;;;;;15.62;74.84;101124.25;4951990;28;20435;-84
2023/04/21 11:20:08;;;;;;;11.32;8.48;;;;;;;15.77;74.20;101120.59;4954856;29;20038;-86
2023/04/21 11:22:36;;;;;;;11.93;9.93;;;;;;;15.72;71.05;101121.44;4941299;29;20031;-87
2023/04/21 11:25:02;;;;;;;11.82;9.57;;;;;;;15.93;75.91;101108.56;4920421;29;20042;-87
2023/04/21 11:30:03;;;;;;;11.82;9.35;;;;;;;16.49;69.68;101069.19;5988827;23;20052;-87
2023/04/21 11:32:29;;;;;;;12.17;9.13;;;;;;;16.74;67.25;101098.88;4956493;28;20059;-87
2023/04/21 11:34:54;;;;;;;9.73;7.28;;;;;;;16.60;64.85;101106.94;4960010;28;20035;-87
2023/04/21 11:37:44;;;;;;;11.70;7.90;;;;;;;16.45;67.42;101094.41;4943714;29;20031;-87
2023/04/21 11:40:10;;;;;;;11.80;9.00;;;;;;;16.28;68.04;101100.31;4947226;28;20035;-86
2023/04/21 11:42:35;;;;;;;11.48;9.05;;;;;;;16.26;66.89;101095.19;4943205;28;20130;-86
2023/04/21 11:45:01;;;;;;;13.10;8.83;;;;;;;16.55;69.47;101078.03;4926397;29;20035;-87
2023/04/21 11:47:27;;;;;;;10.70;8.77;;;;;;;16.88;63.71;101069.19;4944772;29;20059;-86
2023/04/21 11:49:57;;;;;;;10.17;8.23;;;;;;;17.01;63.07;101063.03;4945521;29;20303;-89
2023/04/21 11:52:36;;;;;;;9.90;7.85;;;;;;;17.10;61.60;101064.00;4920022;29;20043;-85
2023/04/21 11:55:19;;;;;;;9.90;8.57;;;;;;;17.18;66.82;101075.22;4945433;28;20046;-87
2023/04/21 11:57:45;;;;;;;13.15;10.18;;;;;;;17.05;62.56;101077.59;4953008;28;20039;-85
2023/04/21 12:00:14;;;;;;;12.73;10.50;;;;;;;16.77;63.65;101063.94;4951870;28;20034;-84
2023/04/21 12:02:40;;;;;;;15.17;12.23;;;;;;;16.47;65.54;101070.59;4944757;28;20036;-83
2023/04/21 12:05:08;;;;;;;16.42;12.45;;;;;;;16.16;64.92;101082.63;4935647;29;20036;-82
2023/04/21 12:07:43;;;;;;;15.05;11.65;;;;;;;16.00;67.16;101073.09;4942405;28;20024;-82
2023/04/21 12:10:14;;;;;;;15.50;10.07;;;;;;;15.99;66.87;101071.47;4951824;28;20036;-84
2023/04/21 12:12:40;;;;;;;13.20;10.88;;;;;;;16.01;66.26;101070.06;4933864;29;20062;-85
2023/04/21 12:15:07;;;;;;;12.80;10.20;;;;;;;16.05;64.48;101064.91;4951027;29;20106;-85
2023/04/21 12:17:37;;;;;;;13.00;10.57;;;;;;;16.11;62.38;101058.34;4936128;29;20489;-82
2023/04/21 12:20:05;;;;;;;14.13;9.40;;;;;;;16.05;62.63;101046.78;4935392;28;20394;-81
2023/04/21 12:22:31;;;;;;;13.25;10.40;;;;;;;15.95;62.51;101049.63;4940987;29;20497;-83
2023/04/21 12:24:56;;;;;;;17.40;10.57;;;;;;;15.75;64.43;101051.44;4932615;29;20059;-83
2023/04/21 12:27:22;;;;;;;12.97;10.40;;;;;;;15.86;63.52;101056.75;4917688;29;20103;-84